Terminal Aerodrome Forecast
Issued by NWS Tulsa, OK

Home | Current Version | Previous Version | Text Only | Print | Product List | Glossary On
Versions: 1 2 3 4 5 6 7 8 9 10 11 12 13 14 15
000
FTUS44 KTSA 251100
TAFFSM
TAF
KFSM 251131Z 2512/2612 04004KT P6SM SCT250
     FM251600 17014G20KT P6SM SCT250
     FM260000 12010KT P6SM SCT250
     FM260900 08006KT P6SM BKN025=

USA.gov is the U.S. government's official web portal to all federal, state and local government web resources and services.